N223FC KISM-KLAL
Flight info
| Callsign | N223FC |
|---|---|
| Flight time | 0h 28m |
| Altitude | 2000 |
| Route | VFR SOUTHWEST |
| Aircraft | P28A/L-SDGRY/S |
Departure
| Time | 2026-04-26 20:14 |
|---|---|
| Airport | Kissimmee Gateway Airport (KISM) |
Arrival
| Time | 2026-04-26 20:42 |
|---|---|
| Airport | Lakeland Linder International Airport (KLAL) |
| Time | Latitude | Longitude | Altitude | Speed | Heading |
|---|---|---|---|---|---|
| 2026-04-26 20:09 | 28.29337 | -81.44168 | 89 ft | 9 kts | 325° |
| 2026-04-26 20:09 | 28.29374 | -81.44194 | 89 ft | 0 kts | 277° |
| 2026-04-26 20:09 | 28.29409 | -81.44212 | 88 ft | 11 kts | 355° |
| 2026-04-26 20:09 | 28.29518 | -81.44242 | 87 ft | 12 kts | 326° |
| 2026-04-26 20:10 | 28.29564 | -81.44257 | 90 ft | 6 kts | 21° |
| 2026-04-26 20:10 | 28.29572 | -81.44252 | 87 ft | 0 kts | 40° |
| 2026-04-26 20:13 | 28.29575 | -81.44247 | 87 ft | 3 kts | 53° |
| 2026-04-26 20:13 | 28.29608 | -81.44192 | 90 ft | 12 kts | 56° |
| 2026-04-26 20:13 | 28.29548 | -81.44106 | 87 ft | 30 kts | 145° |
| 2026-04-26 20:14 | 28.29225 | -81.43885 | 95 ft | 76 kts | 148° |
| 2026-04-26 20:14 | 28.28758 | -81.43591 | 330 ft | 77 kts | 152° |
| 2026-04-26 20:14 | 28.28252 | -81.43497 | 586 ft | 76 kts | 202° |
| 2026-04-26 20:14 | 28.27866 | -81.43915 | 812 ft | 79 kts | 260° |
| 2026-04-26 20:15 | 28.27993 | -81.44494 | 1117 ft | 79 kts | 297° |
| 2026-04-26 20:15 | 28.28234 | -81.45028 | 1440 ft | 69 kts | 295° |
| 2026-04-26 20:15 | 28.28352 | -81.45530 | 1588 ft | 65 kts | 282° |
| 2026-04-26 20:15 | 28.28428 | -81.46037 | 1592 ft | 67 kts | 282° |
| 2026-04-26 20:16 | 28.28498 | -81.46564 | 1626 ft | 68 kts | 281° |
| 2026-04-26 20:16 | 28.28588 | -81.47105 | 1672 ft | 69 kts | 283° |
| 2026-04-26 20:16 | 28.28685 | -81.47633 | 1719 ft | 69 kts | 282° |
| 2026-04-26 20:16 | 28.28787 | -81.48166 | 1719 ft | 71 kts | 282° |
| 2026-04-26 20:17 | 28.28886 | -81.48694 | 1747 ft | 69 kts | 284° |
| 2026-04-26 20:17 | 28.28983 | -81.49265 | 1729 ft | 75 kts | 284° |
| 2026-04-26 20:17 | 28.29065 | -81.49860 | 1725 ft | 79 kts | 278° |
| 2026-04-26 20:17 | 28.29081 | -81.50277 | 1756 ft | 78 kts | 272° |
| 2026-04-26 20:18 | 28.29039 | -81.51087 | 1730 ft | 78 kts | 265° |
| 2026-04-26 20:18 | 28.28961 | -81.51688 | 1682 ft | 78 kts | 261° |
| 2026-04-26 20:18 | 28.28867 | -81.52333 | 1680 ft | 86 kts | 259° |
| 2026-04-26 20:18 | 28.28733 | -81.53050 | 1789 ft | 97 kts | 259° |
| 2026-04-26 20:19 | 28.28584 | -81.53811 | 1870 ft | 99 kts | 258° |
| 2026-04-26 20:19 | 28.28419 | -81.54571 | 1822 ft | 101 kts | 254° |
| 2026-04-26 20:19 | 28.28221 | -81.55337 | 1721 ft | 103 kts | 255° |
| 2026-04-26 20:19 | 28.28009 | -81.56182 | 1620 ft | 120 kts | 255° |
| 2026-04-26 20:20 | 28.27728 | -81.57084 | 1615 ft | 121 kts | 247° |
| 2026-04-26 20:20 | 28.27508 | -81.57983 | 1618 ft | 120 kts | 257° |
| 2026-04-26 20:20 | 28.27302 | -81.58878 | 1678 ft | 111 kts | 258° |
| 2026-04-26 20:20 | 28.27118 | -81.59706 | 1767 ft | 107 kts | 259° |
| 2026-04-26 20:21 | 28.26940 | -81.60515 | 1808 ft | 104 kts | 257° |
| 2026-04-26 20:21 | 28.26757 | -81.61287 | 1910 ft | 98 kts | 254° |
| 2026-04-26 20:21 | 28.26568 | -81.62034 | 1943 ft | 102 kts | 255° |
| 2026-04-26 20:21 | 28.26347 | -81.62813 | 1900 ft | 105 kts | 254° |
| 2026-04-26 20:22 | 28.26123 | -81.63601 | 1920 ft | 104 kts | 255° |
| 2026-04-26 20:22 | 28.25924 | -81.64389 | 1922 ft | 105 kts | 257° |
| 2026-04-26 20:22 | 28.25732 | -81.65201 | 1874 ft | 106 kts | 257° |
| 2026-04-26 20:22 | 28.25565 | -81.65967 | 1654 ft | 95 kts | 257° |
| 2026-04-26 20:23 | 28.25374 | -81.66655 | 1431 ft | 90 kts | 253° |
| 2026-04-26 20:23 | 28.25188 | -81.67307 | 1291 ft | 86 kts | 256° |
| 2026-04-26 20:23 | 28.25040 | -81.67966 | 1104 ft | 87 kts | 259° |
| 2026-04-26 20:23 | 28.24907 | -81.68608 | 958 ft | 79 kts | 259° |
| 2026-04-26 20:24 | 28.24807 | -81.69211 | 733 ft | 81 kts | 263° |
| 2026-04-26 20:24 | 28.24700 | -81.69933 | 774 ft | 103 kts | 263° |
| 2026-04-26 20:24 | 28.24589 | -81.70776 | 915 ft | 112 kts | 261° |
| 2026-04-26 20:24 | 28.24423 | -81.71591 | 875 ft | 102 kts | 262° |
| 2026-04-26 20:25 | 28.24232 | -81.72358 | 885 ft | 102 kts | 260° |
| 2026-04-26 20:25 | 28.24135 | -81.72873 | 905 ft | 100 kts | 262° |
| 2026-04-26 20:25 | 28.24007 | -81.73918 | 788 ft | 98 kts | 266° |
| 2026-04-26 20:25 | 28.23944 | -81.74623 | 783 ft | 87 kts | 265° |
| 2026-04-26 20:26 | 28.23682 | -81.75231 | 759 ft | 88 kts | 234° |
| 2026-04-26 20:26 | 28.23218 | -81.75708 | 706 ft | 89 kts | 225° |
| 2026-04-26 20:26 | 28.22739 | -81.76197 | 759 ft | 91 kts | 231° |
| 2026-04-26 20:26 | 28.22244 | -81.76718 | 821 ft | 102 kts | 229° |
| 2026-04-26 20:27 | 28.21736 | -81.77287 | 911 ft | 103 kts | 231° |
| 2026-04-26 20:27 | 28.21194 | -81.77863 | 961 ft | 111 kts | 227° |
| 2026-04-26 20:27 | 28.20646 | -81.78441 | 1054 ft | 101 kts | 230° |
| 2026-04-26 20:27 | 28.20125 | -81.78959 | 1141 ft | 100 kts | 227° |
| 2026-04-26 20:28 | 28.19591 | -81.79485 | 1198 ft | 103 kts | 229° |
| 2026-04-26 20:28 | 28.19064 | -81.80021 | 1186 ft | 101 kts | 231° |
| 2026-04-26 20:28 | 28.18564 | -81.80555 | 1149 ft | 98 kts | 230° |
| 2026-04-26 20:28 | 28.18095 | -81.81098 | 1131 ft | 95 kts | 231° |
| 2026-04-26 20:29 | 28.17668 | -81.81656 | 1186 ft | 95 kts | 235° |
| 2026-04-26 20:29 | 28.17236 | -81.82232 | 1203 ft | 95 kts | 234° |
| 2026-04-26 20:29 | 28.16776 | -81.82769 | 1259 ft | 98 kts | 216° |
| 2026-04-26 20:29 | 28.16069 | -81.82840 | 1246 ft | 103 kts | 183° |
| 2026-04-26 20:30 | 28.15346 | -81.82826 | 1245 ft | 106 kts | 185° |
| 2026-04-26 20:30 | 28.14586 | -81.82807 | 1208 ft | 112 kts | 185° |
| 2026-04-26 20:30 | 28.13800 | -81.82772 | 1146 ft | 113 kts | 185° |
| 2026-04-26 20:30 | 28.13034 | -81.82738 | 1100 ft | 111 kts | 185° |
| 2026-04-26 20:31 | 28.12257 | -81.82705 | 1018 ft | 111 kts | 184° |
| 2026-04-26 20:31 | 28.11492 | -81.82681 | 994 ft | 109 kts | 186° |
| 2026-04-26 20:31 | 28.10812 | -81.82896 | 1087 ft | 96 kts | 232° |
| 2026-04-26 20:31 | 28.10545 | -81.83573 | 1234 ft | 95 kts | 256° |
| 2026-04-26 20:32 | 28.10389 | -81.84278 | 1225 ft | 90 kts | 259° |
| 2026-04-26 20:32 | 28.10276 | -81.84996 | 1175 ft | 94 kts | 263° |
| 2026-04-26 20:32 | 28.10192 | -81.85748 | 1159 ft | 95 kts | 265° |
| 2026-04-26 20:32 | 28.10119 | -81.86489 | 1186 ft | 95 kts | 265° |
| 2026-04-26 20:33 | 28.10040 | -81.87225 | 1201 ft | 94 kts | 262° |
| 2026-04-26 20:33 | 28.09962 | -81.87942 | 1180 ft | 92 kts | 263° |
| 2026-04-26 20:33 | 28.09891 | -81.88678 | 1152 ft | 95 kts | 261° |
| 2026-04-26 20:33 | 28.09678 | -81.89387 | 1121 ft | 97 kts | 251° |
| 2026-04-26 20:34 | 28.09459 | -81.90097 | 1117 ft | 94 kts | 254° |
| 2026-04-26 20:34 | 28.09260 | -81.90766 | 1161 ft | 88 kts | 257° |
| 2026-04-26 20:34 | 28.09092 | -81.91430 | 1111 ft | 90 kts | 257° |
| 2026-04-26 20:34 | 28.08872 | -81.92094 | 1195 ft | 89 kts | 253° |
| 2026-04-26 20:35 | 28.08651 | -81.92698 | 1202 ft | 84 kts | 253° |
| 2026-04-26 20:35 | 28.08424 | -81.93337 | 1197 ft | 90 kts | 256° |
| 2026-04-26 20:35 | 28.08225 | -81.94006 | 1175 ft | 90 kts | 257° |
| 2026-04-26 20:35 | 28.08059 | -81.94668 | 1158 ft | 85 kts | 257° |
| 2026-04-26 20:36 | 28.07916 | -81.95293 | 1167 ft | 80 kts | 260° |
| 2026-04-26 20:36 | 28.07788 | -81.95944 | 1220 ft | 89 kts | 263° |
| 2026-04-26 20:36 | 28.07659 | -81.96636 | 1193 ft | 89 kts | 262° |
| 2026-04-26 20:36 | 28.07436 | -81.97301 | 1196 ft | 91 kts | 248° |
| 2026-04-26 20:37 | 28.07059 | -81.97877 | 1227 ft | 92 kts | 237° |
| 2026-04-26 20:37 | 28.06652 | -81.98409 | 1192 ft | 87 kts | 237° |
| 2026-04-26 20:37 | 28.06282 | -81.98939 | 1195 ft | 90 kts | 240° |
| 2026-04-26 20:37 | 28.05922 | -81.99533 | 1209 ft | 90 kts | 241° |
| 2026-04-26 20:38 | 28.05567 | -82.00112 | 1205 ft | 93 kts | 241° |
| 2026-04-26 20:38 | 28.05186 | -82.00737 | 1282 ft | 99 kts | 243° |
| 2026-04-26 20:38 | 28.04798 | -82.01423 | 1243 ft | 107 kts | 240° |
| 2026-04-26 20:38 | 28.04430 | -82.02104 | 1205 ft | 96 kts | 233° |
| 2026-04-26 20:39 | 28.03826 | -82.02186 | 1267 ft | 104 kts | 170° |
| 2026-04-26 20:39 | 28.03349 | -82.02054 | 1194 ft | 109 kts | 175° |
| 2026-04-26 20:39 | 28.02348 | -82.01915 | 1120 ft | 109 kts | 183° |
| 2026-04-26 20:39 | 28.01639 | -82.01782 | 1010 ft | 107 kts | 159° |
| 2026-04-26 20:40 | 28.01203 | -82.01101 | 957 ft | 110 kts | 107° |
| 2026-04-26 20:40 | 28.01067 | -82.00199 | 1097 ft | 117 kts | 96° |
| 2026-04-26 20:40 | 28.00996 | -81.99267 | 1205 ft | 122 kts | 92° |
| 2026-04-26 20:40 | 28.00678 | -81.98448 | 1123 ft | 118 kts | 152° |
| 2026-04-26 20:41 | 27.99948 | -81.98415 | 815 ft | 87 kts | 211° |
| 2026-04-26 20:41 | 27.99501 | -81.98724 | 688 ft | 69 kts | 234° |
| 2026-04-26 20:41 | 27.99252 | -81.99181 | 654 ft | 74 kts | 255° |
| 2026-04-26 20:41 | 27.99118 | -81.99784 | 587 ft | 83 kts | 264° |
| 2026-04-26 20:42 | 27.99062 | -82.00449 | 482 ft | 85 kts | 266° |
| 2026-04-26 20:42 | 27.99043 | -82.01063 | 332 ft | 68 kts | 268° |
| 2026-04-26 20:42 | 27.99038 | -82.01544 | 175 ft | 60 kts | 269° |
| 2026-04-26 20:42 | 27.99038 | -82.01976 | 140 ft | 44 kts | 270° |
| 2026-04-26 20:43 | 27.99036 | -82.02244 | 139 ft | 25 kts | 268° |
| 2026-04-26 20:43 | 27.99035 | -82.02533 | 138 ft | 46 kts | 269° |
| 2026-04-26 20:43 | 27.99032 | -82.02824 | 138 ft | 30 kts | 270° |
| 2026-04-26 20:43 | 27.99032 | -82.03057 | 134 ft | 30 kts | 274° |
| 2026-04-26 20:44 | 27.99034 | -82.03276 | 134 ft | 24 kts | 270° |
| 2026-04-26 20:44 | 27.98978 | -82.03349 | 135 ft | 12 kts | 183° |
| 2026-04-26 20:44 | 27.98842 | -82.03350 | 136 ft | 17 kts | 162° |
| 2026-04-26 20:44 | 27.98816 | -82.03259 | 135 ft | 10 kts | 89° |
| 2026-04-26 20:45 | 27.98815 | -82.03139 | 136 ft | 20 kts | 91° |
| 2026-04-26 20:45 | 27.98816 | -82.02980 | 134 ft | 20 kts | 89° |
| 2026-04-26 20:45 | 27.98817 | -82.02825 | 132 ft | 19 kts | 95° |
| 2026-04-26 20:45 | 27.98817 | -82.02686 | 133 ft | 16 kts | 92° |
| 2026-04-26 20:46 | 27.98818 | -82.02567 | 134 ft | 14 kts | 86° |
| 2026-04-26 20:46 | 27.98820 | -82.02465 | 135 ft | 12 kts | 84° |
| 2026-04-26 20:46 | 27.98819 | -82.02376 | 135 ft | 11 kts | 90° |
| 2026-04-26 20:46 | 27.98801 | -82.02307 | 135 ft | 11 kts | 157° |
| 2026-04-26 20:47 | 27.98720 | -82.02294 | 135 ft | 8 kts | 180° |
| 2026-04-26 20:47 | 27.98687 | -82.02295 | 135 ft | 6 kts | 180° |
| 2026-04-26 20:47 | 27.98644 | -82.02294 | 136 ft | 3 kts | 176° |
| 2026-04-26 20:47 | 27.98620 | -82.02257 | 137 ft | 13 kts | 100° |
| 2026-04-26 20:48 | 27.98624 | -82.02203 | 137 ft | 0 kts | 354° |
| 2026-04-26 20:50 | 27.98422 | -82.01072 | 141 ft | 0 kts | 354° |
| 2026-04-26 20:51 | 27.98421 | -82.01072 | 141 ft | 0 kts | 354° |
| 2026-04-26 20:55 | 28.29250 | -81.44094 | 90 ft | 0 kts | 56° |
| 2026-04-26 20:56 | 28.29250 | -81.44095 | 90 ft | 0 kts | 56° |
| 2026-04-26 20:57 | 28.29256 | -81.44095 | 90 ft | 6 kts | 327° |
| 2026-04-26 20:57 | 28.29315 | -81.44103 | 92 ft | 9 kts | 336° |
| 2026-04-26 20:57 | 28.29366 | -81.44135 | 90 ft | 8 kts | 331° |
| 2026-04-26 20:58 | 28.29410 | -81.44165 | 89 ft | 7 kts | 328° |
| 2026-04-26 20:58 | 28.29511 | -81.44235 | 87 ft | 21 kts | 327° |
| 2026-04-26 20:58 | 28.29568 | -81.44250 | 87 ft | 4 kts | 32° |
| 2026-04-26 20:58 | 28.29575 | -81.44243 | 88 ft | 5 kts | 49° |
| 2026-04-26 20:59 | 28.29522 | -81.44095 | 87 ft | 45 kts | 147° |
| 2026-04-26 20:59 | 28.29149 | -81.43921 | 152 ft | 68 kts | 168° |
| 2026-04-26 20:59 | 28.28674 | -81.43913 | 296 ft | 68 kts | 176° |
| 2026-04-26 20:59 | 28.28195 | -81.43948 | 435 ft | 69 kts | 184° |
| 2026-04-26 21:00 | 28.27708 | -81.44034 | 561 ft | 74 kts | 190° |
| 2026-04-26 21:00 | 28.27218 | -81.44230 | 695 ft | 80 kts | 223° |
| 2026-04-26 21:00 | 28.26840 | -81.44731 | 865 ft | 87 kts | 237° |
| 2026-04-26 21:00 | 28.26490 | -81.45306 | 991 ft | 85 kts | 246° |
| 2026-04-26 21:01 | 28.26253 | -81.45971 | 1106 ft | 94 kts | 254° |
| 2026-04-26 21:01 | 28.26079 | -81.46692 | 1294 ft | 95 kts | 258° |
| 2026-04-26 21:01 | 28.25946 | -81.47456 | 1510 ft | 102 kts | 260° |
| 2026-04-26 21:01 | 28.25813 | -81.48225 | 1724 ft | 101 kts | 260° |
| 2026-04-26 21:02 | 28.25699 | -81.49049 | 1931 ft | 109 kts | 262° |
| 2026-04-26 21:02 | 28.25626 | -81.49910 | 2113 ft | 112 kts | 268° |
| 2026-04-26 21:02 | 28.25612 | -81.50798 | 2249 ft | 113 kts | 270° |
| 2026-04-26 21:02 | 28.25603 | -81.51730 | 2184 ft | 123 kts | 271° |
| 2026-04-26 21:03 | 28.25612 | -81.52711 | 2113 ft | 125 kts | 271° |
| 2026-04-26 21:03 | 28.25644 | -81.53692 | 2099 ft | 124 kts | 272° |
| 2026-04-26 21:03 | 28.25675 | -81.54666 | 2095 ft | 123 kts | 273° |
| 2026-04-26 21:03 | 28.25696 | -81.55624 | 2044 ft | 115 kts | 272° |
| 2026-04-26 21:04 | 28.25700 | -81.56540 | 1946 ft | 122 kts | 270° |
| 2026-04-26 21:04 | 28.25690 | -81.57471 | 1890 ft | 106 kts | 271° |
| 2026-04-26 21:04 | 28.25693 | -81.58260 | 1761 ft | 109 kts | 271° |
| 2026-04-26 21:04 | 28.25714 | -81.59177 | 1709 ft | 120 kts | 272° |
| 2026-04-26 21:05 | 28.25738 | -81.60110 | 1659 ft | 114 kts | 269° |
| 2026-04-26 21:05 | 28.25727 | -81.60985 | 1648 ft | 110 kts | 270° |
| 2026-04-26 21:05 | 28.25707 | -81.61860 | 1615 ft | 113 kts | 269° |
| 2026-04-26 21:05 | 28.25687 | -81.62762 | 1548 ft | 115 kts | 269° |
| 2026-04-26 21:06 | 28.25678 | -81.63672 | 1494 ft | 115 kts | 270° |
| 2026-04-26 21:06 | 28.25677 | -81.64579 | 1446 ft | 115 kts | 270° |
| 2026-04-26 21:06 | 28.25666 | -81.65504 | 1352 ft | 118 kts | 270° |
| 2026-04-26 21:06 | 28.25648 | -81.66407 | 1311 ft | 112 kts | 269° |
| 2026-04-26 21:07 | 28.25623 | -81.67295 | 1250 ft | 113 kts | 269° |
| 2026-04-26 21:07 | 28.25597 | -81.68175 | 1141 ft | 109 kts | 268° |
| 2026-04-26 21:07 | 28.25554 | -81.69017 | 1034 ft | 106 kts | 268° |
| 2026-04-26 21:07 | 28.25510 | -81.69842 | 1063 ft | 105 kts | 268° |
| 2026-04-26 21:08 | 28.25366 | -81.70662 | 1134 ft | 107 kts | 257° |
| 2026-04-26 21:08 | 28.25157 | -81.71489 | 1219 ft | 106 kts | 256° |
| 2026-04-26 21:08 | 28.24953 | -81.72278 | 1191 ft | 105 kts | 258° |
| 2026-04-26 21:08 | 28.24727 | -81.73090 | 1104 ft | 112 kts | 256° |
| 2026-04-26 21:09 | 28.24492 | -81.73913 | 1088 ft | 109 kts | 255° |
| 2026-04-26 21:09 | 28.24264 | -81.74687 | 1097 ft | 98 kts | 256° |
| 2026-04-26 21:09 | 28.24051 | -81.75402 | 1107 ft | 98 kts | 255° |
| 2026-04-26 21:09 | 28.23820 | -81.76147 | 1130 ft | 102 kts | 254° |
| 2026-04-26 21:10 | 28.23565 | -81.76919 | 1157 ft | 105 kts | 254° |
| 2026-04-26 21:10 | 28.23291 | -81.77671 | 1166 ft | 102 kts | 251° |
| 2026-04-26 21:10 | 28.22942 | -81.78378 | 1117 ft | 104 kts | 237° |
| 2026-04-26 21:10 | 28.22455 | -81.78990 | 1076 ft | 105 kts | 232° |
| 2026-04-26 21:11 | 28.21845 | -81.79478 | 1061 ft | 108 kts | 213° |
| 2026-04-26 21:11 | 28.21180 | -81.79852 | 1114 ft | 105 kts | 212° |
| 2026-04-26 21:11 | 28.20537 | -81.80225 | 1135 ft | 104 kts | 216° |
| 2026-04-26 21:11 | 28.19881 | -81.80579 | 1121 ft | 105 kts | 214° |
| 2026-04-26 21:12 | 28.19245 | -81.80944 | 1123 ft | 103 kts | 217° |
| 2026-04-26 21:12 | 28.18629 | -81.81315 | 1171 ft | 96 kts | 217° |
| 2026-04-26 21:12 | 28.18041 | -81.81753 | 1075 ft | 104 kts | 223° |
| 2026-04-26 21:12 | 28.17445 | -81.82213 | 1069 ft | 103 kts | 217° |
| 2026-04-26 21:13 | 28.16747 | -81.82408 | 1082 ft | 110 kts | 186° |
| 2026-04-26 21:13 | 28.15969 | -81.82432 | 1082 ft | 110 kts | 188° |
| 2026-04-26 21:13 | 28.15243 | -81.82441 | 1104 ft | 101 kts | 187° |
| 2026-04-26 21:13 | 28.14531 | -81.82425 | 1103 ft | 106 kts | 185° |
| 2026-04-26 21:14 | 28.13772 | -81.82411 | 1098 ft | 110 kts | 187° |
| 2026-04-26 21:14 | 28.13014 | -81.82439 | 1119 ft | 106 kts | 188° |
| 2026-04-26 21:14 | 28.12297 | -81.82521 | 1190 ft | 101 kts | 199° |
| 2026-04-26 21:14 | 28.11732 | -81.82946 | 1221 ft | 97 kts | 234° |
| 2026-04-26 21:15 | 28.11391 | -81.83605 | 1252 ft | 97 kts | 250° |
| 2026-04-26 21:15 | 28.11144 | -81.84317 | 1256 ft | 96 kts | 252° |
| 2026-04-26 21:15 | 28.10901 | -81.84978 | 1179 ft | 86 kts | 250° |
| 2026-04-26 21:15 | 28.10666 | -81.85571 | 1089 ft | 81 kts | 251° |
| 2026-04-26 21:16 | 28.10428 | -81.86208 | 1102 ft | 95 kts | 253° |
| 2026-04-26 21:16 | 28.10194 | -81.86902 | 1177 ft | 97 kts | 252° |
| 2026-04-26 21:16 | 28.09975 | -81.87619 | 1210 ft | 93 kts | 253° |
| 2026-04-26 21:16 | 28.09777 | -81.88316 | 1171 ft | 92 kts | 256° |
| 2026-04-26 21:17 | 28.09595 | -81.88998 | 1120 ft | 91 kts | 257° |
| 2026-04-26 21:17 | 28.09421 | -81.89679 | 1083 ft | 89 kts | 257° |
| 2026-04-26 21:17 | 28.09250 | -81.90359 | 945 ft | 89 kts | 257° |
| 2026-04-26 21:17 | 28.09108 | -81.90965 | 1086 ft | 80 kts | 260° |
| 2026-04-26 21:18 | 28.08985 | -81.91617 | 1177 ft | 89 kts | 262° |
| 2026-04-26 21:18 | 28.08873 | -81.92339 | 1215 ft | 96 kts | 264° |
| 2026-04-26 21:18 | 28.08742 | -81.93028 | 1186 ft | 92 kts | 261° |
| 2026-04-26 21:18 | 28.08600 | -81.93744 | 1204 ft | 94 kts | 264° |
| 2026-04-26 21:19 | 28.08501 | -81.94461 | 1183 ft | 90 kts | 264° |
| 2026-04-26 21:19 | 28.08412 | -81.95161 | 1147 ft | 91 kts | 265° |
| 2026-04-26 21:19 | 28.08352 | -81.95894 | 1130 ft | 96 kts | 265° |
| 2026-04-26 21:19 | 28.08153 | -81.96630 | 1094 ft | 97 kts | 248° |
| 2026-04-26 21:20 | 28.07777 | -81.97201 | 1211 ft | 90 kts | 238° |
| 2026-04-26 21:20 | 28.07368 | -81.97770 | 1254 ft | 95 kts | 236° |
| 2026-04-26 21:20 | 28.06939 | -81.98363 | 1199 ft | 96 kts | 237° |
| 2026-04-26 21:20 | 28.06531 | -81.98922 | 1230 ft | 94 kts | 236° |
| 2026-04-26 21:21 | 28.06113 | -81.99521 | 1179 ft | 98 kts | 236° |
| 2026-04-26 21:21 | 28.05672 | -82.00094 | 1109 ft | 95 kts | 237° |
| 2026-04-26 21:21 | 28.05231 | -82.00669 | 1053 ft | 99 kts | 239° |
| 2026-04-26 21:21 | 28.04810 | -82.01304 | 1064 ft | 102 kts | 238° |
| 2026-04-26 21:22 | 28.04327 | -82.01867 | 1100 ft | 102 kts | 213° |
| 2026-04-26 21:22 | 28.03601 | -82.01912 | 1107 ft | 111 kts | 182° |
| 2026-04-26 21:22 | 28.02845 | -82.01838 | 1139 ft | 108 kts | 180° |
| 2026-04-26 21:23 | 28.01389 | -82.01708 | 1010 ft | 106 kts | 183° |
| 2026-04-26 21:23 | 28.00822 | -82.01278 | 1022 ft | 103 kts | 111° |
| 2026-04-26 21:23 | 28.00742 | -82.00442 | 1013 ft | 113 kts | 90° |
| 2026-04-26 21:23 | 28.00258 | -81.99850 | 916 ft | 114 kts | 174° |
| 2026-04-26 21:24 | 27.99486 | -81.99882 | 801 ft | 111 kts | 219° |
| 2026-04-26 21:24 | 27.99093 | -82.00564 | 624 ft | 91 kts | 265° |
| 2026-04-26 21:24 | 27.99034 | -82.01169 | 393 ft | 66 kts | 283° |
| 2026-04-26 21:24 | 27.99039 | -82.01645 | 256 ft | 56 kts | 272° |
| 2026-04-26 21:25 | 27.99040 | -82.02057 | 163 ft | 51 kts | 270° |
| 2026-04-26 21:25 | 27.99039 | -82.02409 | 139 ft | 36 kts | 265° |
| 2026-04-26 21:25 | 27.99035 | -82.02625 | 137 ft | 20 kts | 270° |
| 2026-04-26 21:25 | 27.99036 | -82.02753 | 138 ft | 14 kts | 270° |
| 2026-04-26 21:26 | 27.99035 | -82.02938 | 136 ft | 34 kts | 269° |
| 2026-04-26 21:26 | 27.99034 | -82.03191 | 134 ft | 29 kts | 268° |
| 2026-04-26 21:26 | 27.99023 | -82.03331 | 134 ft | 12 kts | 225° |
| 2026-04-26 21:26 | 27.98979 | -82.03350 | 135 ft | 0 kts | 173° |
| 2026-04-26 21:27 | 27.98901 | -82.03360 | 136 ft | 25 kts | 181° |
| 2026-04-26 21:27 | 27.98815 | -82.03242 | 135 ft | 29 kts | 86° |
| 2026-04-26 21:27 | 27.98816 | -82.02995 | 134 ft | 32 kts | 90° |
| 2026-04-26 21:27 | 27.98819 | -82.02746 | 133 ft | 31 kts | 89° |
| 2026-04-26 21:28 | 27.98816 | -82.02518 | 135 ft | 26 kts | 86° |
| 2026-04-26 21:28 | 27.98817 | -82.02345 | 135 ft | 20 kts | 96° |
| 2026-04-26 21:28 | 27.98738 | -82.02277 | 135 ft | 14 kts | 187° |
| 2026-04-26 21:28 | 27.98695 | -82.02253 | 134 ft | 6 kts | 359° |
| 2026-04-26 21:29 | 27.98702 | -82.02253 | 134 ft | 0 kts | 356° |
| 2026-04-26 21:31 | 27.98701 | -82.02253 | 134 ft | 0 kts | 355° |
| 2026-04-26 21:34 | 28.29250 | -81.44094 | 90 ft | 0 kts | 56° |
| 2026-04-26 21:36 | 28.29250 | -81.44095 | 90 ft | 0 kts | 56° |
| 2026-04-26 21:49 | 28.29249 | -81.44096 | 90 ft | 0 kts | 56° |
| 2026-04-26 21:55 | 28.29250 | -81.44094 | 90 ft | 0 kts | 56° |
| 2026-04-26 21:56 | 28.29250 | -81.44095 | 90 ft | 0 kts | 56° |
| 2026-04-26 22:03 | 28.29305 | -81.44102 | 90 ft | 14 kts | 349° |
| 2026-04-26 22:03 | 28.29386 | -81.44153 | 89 ft | 12 kts | 334° |
| 2026-04-26 22:03 | 28.29460 | -81.44203 | 87 ft | 13 kts | 327° |
| 2026-04-26 22:04 | 28.29517 | -81.44261 | 88 ft | 10 kts | 278° |
| 2026-04-26 22:04 | 28.29532 | -81.44300 | 87 ft | 0 kts | 320° |
| 2026-04-26 22:04 | 28.29535 | -81.44300 | 87 ft | 5 kts | 12° |
| 2026-04-26 22:05 | 28.29569 | -81.44256 | 87 ft | 5 kts | 52° |
| 2026-04-26 22:05 | 28.29571 | -81.44253 | 87 ft | 0 kts | 54° |
| 2026-04-26 22:06 | 28.29571 | -81.44254 | 87 ft | 0 kts | 54° |
| 2026-04-26 22:06 | 28.29570 | -81.44254 | 87 ft | 0 kts | 54° |
| 2026-04-26 22:07 | 28.29581 | -81.44236 | 89 ft | 16 kts | 51° |
| 2026-04-26 22:07 | 28.29463 | -81.44059 | 88 ft | 56 kts | 149° |
| 2026-04-26 22:07 | 28.29057 | -81.43738 | 166 ft | 79 kts | 154° |
| 2026-04-26 22:07 | 28.28590 | -81.43380 | 386 ft | 81 kts | 153° |
| 2026-04-26 22:08 | 28.28050 | -81.43462 | 523 ft | 88 kts | 226° |
| 2026-04-26 22:08 | 28.27856 | -81.44089 | 764 ft | 89 kts | 267° |
| 2026-04-26 22:08 | 28.27876 | -81.44846 | 897 ft | 101 kts | 272° |
| 2026-04-26 22:08 | 28.27930 | -81.45650 | 1005 ft | 107 kts | 276° |
| 2026-04-26 22:09 | 28.27961 | -81.46528 | 1126 ft | 105 kts | 274° |
| 2026-04-26 22:09 | 28.27964 | -81.47307 | 1393 ft | 93 kts | 271° |
| 2026-04-26 22:09 | 28.27971 | -81.48052 | 1590 ft | 93 kts | 270° |
| 2026-04-26 22:09 | 28.27955 | -81.48772 | 1807 ft | 90 kts | 267° |
| 2026-04-26 22:10 | 28.27911 | -81.49495 | 1939 ft | 94 kts | 265° |
| 2026-04-26 22:10 | 28.27828 | -81.50242 | 2047 ft | 103 kts | 263° |
| 2026-04-26 22:10 | 28.27713 | -81.51081 | 2166 ft | 107 kts | 258° |
| 2026-04-26 22:10 | 28.27517 | -81.51871 | 2367 ft | 106 kts | 253° |
| 2026-04-26 22:11 | 28.27292 | -81.52680 | 2507 ft | 109 kts | 255° |
| 2026-04-26 22:11 | 28.27076 | -81.53512 | 2596 ft | 113 kts | 256° |
| 2026-04-26 22:11 | 28.26879 | -81.54393 | 2665 ft | 116 kts | 259° |
| 2026-04-26 22:11 | 28.26719 | -81.55285 | 2750 ft | 116 kts | 262° |
| 2026-04-26 22:12 | 28.26570 | -81.56200 | 2771 ft | 120 kts | 264° |
| 2026-04-26 22:12 | 28.26442 | -81.57138 | 2802 ft | 122 kts | 264° |
| 2026-04-26 22:12 | 28.26327 | -81.58092 | 2815 ft | 119 kts | 266° |
| 2026-04-26 22:12 | 28.26234 | -81.59012 | 2793 ft | 119 kts | 265° |
| 2026-04-26 22:13 | 28.26130 | -81.59952 | 2713 ft | 121 kts | 263° |
| 2026-04-26 22:13 | 28.26017 | -81.60882 | 2663 ft | 121 kts | 264° |
| 2026-04-26 22:13 | 28.25916 | -81.61826 | 2566 ft | 121 kts | 266° |
| 2026-04-26 22:13 | 28.25832 | -81.62787 | 2436 ft | 122 kts | 265° |
| 2026-04-26 22:14 | 28.25740 | -81.63755 | 2322 ft | 123 kts | 265° |
| 2026-04-26 22:14 | 28.25678 | -81.64724 | 2255 ft | 122 kts | 268° |
| 2026-04-26 22:14 | 28.25628 | -81.65674 | 2206 ft | 119 kts | 268° |
| 2026-04-26 22:14 | 28.25536 | -81.66576 | 2156 ft | 109 kts | 264° |
| 2026-04-26 22:15 | 28.25421 | -81.67421 | 2032 ft | 109 kts | 263° |
| 2026-04-26 22:15 | 28.25313 | -81.68277 | 1911 ft | 110 kts | 266° |
| 2026-04-26 22:15 | 28.25217 | -81.69135 | 1758 ft | 109 kts | 264° |
| 2026-04-26 22:15 | 28.25057 | -81.69996 | 1520 ft | 114 kts | 261° |
| 2026-04-26 22:16 | 28.24898 | -81.70873 | 1389 ft | 116 kts | 261° |
| 2026-04-26 22:16 | 28.24727 | -81.71740 | 1251 ft | 111 kts | 259° |
| 2026-04-26 22:16 | 28.24463 | -81.72581 | 1147 ft | 111 kts | 257° |
| 2026-04-26 22:16 | 28.24214 | -81.73387 | 1024 ft | 106 kts | 253° |
| 2026-04-26 22:17 | 28.23958 | -81.74171 | 955 ft | 107 kts | 251° |
| 2026-04-26 22:17 | 28.23602 | -81.74893 | 977 ft | 102 kts | 246° |
| 2026-04-26 22:17 | 28.23265 | -81.75603 | 959 ft | 103 kts | 247° |
| 2026-04-26 22:17 | 28.22931 | -81.76333 | 1021 ft | 105 kts | 249° |
| 2026-04-26 22:18 | 28.22605 | -81.77081 | 1039 ft | 109 kts | 249° |
| 2026-04-26 22:18 | 28.22274 | -81.77859 | 1049 ft | 108 kts | 250° |
| 2026-04-26 22:18 | 28.22208 | -81.78638 | 1088 ft | 102 kts | 278° |
| 2026-04-26 22:18 | 28.22298 | -81.79458 | 1120 ft | 107 kts | 280° |
| 2026-04-26 22:19 | 28.22431 | -81.80300 | 1167 ft | 109 kts | 281° |
| 2026-04-26 22:19 | 28.22559 | -81.81144 | 1214 ft | 107 kts | 280° |
| 2026-04-26 22:19 | 28.22666 | -81.81969 | 1273 ft | 107 kts | 280° |
| 2026-04-26 22:19 | 28.22583 | -81.82820 | 1346 ft | 109 kts | 246° |
| 2026-04-26 22:20 | 28.21946 | -81.83256 | 1282 ft | 114 kts | 192° |
| 2026-04-26 22:20 | 28.21200 | -81.83081 | 1115 ft | 109 kts | 166° |
| 2026-04-26 22:20 | 28.20471 | -81.82706 | 1097 ft | 118 kts | 160° |
| 2026-04-26 22:20 | 28.19742 | -81.82327 | 1110 ft | 116 kts | 164° |
| 2026-04-26 22:21 | 28.19000 | -81.81997 | 1148 ft | 116 kts | 164° |
| 2026-04-26 22:21 | 28.18265 | -81.81660 | 1222 ft | 114 kts | 163° |
| 2026-04-26 22:21 | 28.17502 | -81.81362 | 1271 ft | 116 kts | 170° |
| 2026-04-26 22:21 | 28.16718 | -81.81165 | 1323 ft | 112 kts | 175° |
| 2026-04-26 22:22 | 28.15984 | -81.81031 | 1318 ft | 106 kts | 180° |
| 2026-04-26 22:22 | 28.15228 | -81.80970 | 1233 ft | 111 kts | 182° |
| 2026-04-26 22:22 | 28.14493 | -81.81042 | 1196 ft | 103 kts | 196° |
| 2026-04-26 22:22 | 28.13807 | -81.81222 | 1146 ft | 100 kts | 201° |
| 2026-04-26 22:23 | 28.13151 | -81.81445 | 1134 ft | 101 kts | 204° |
| 2026-04-26 22:23 | 28.12478 | -81.81721 | 1117 ft | 105 kts | 206° |
| 2026-04-26 22:23 | 28.11855 | -81.82076 | 1213 ft | 96 kts | 227° |
| 2026-04-26 22:23 | 28.11560 | -81.82709 | 1297 ft | 90 kts | 261° |
| 2026-04-26 22:24 | 28.11440 | -81.83409 | 1339 ft | 95 kts | 263° |
| 2026-04-26 22:24 | 28.11333 | -81.84164 | 1325 ft | 101 kts | 264° |
| 2026-04-26 22:24 | 28.11234 | -81.84867 | 1237 ft | 80 kts | 259° |
| 2026-04-26 22:24 | 28.11024 | -81.85451 | 1152 ft | 85 kts | 250° |
| 2026-04-26 22:25 | 28.10776 | -81.86081 | 1123 ft | 91 kts | 252° |
| 2026-04-26 22:25 | 28.10505 | -81.86755 | 1129 ft | 96 kts | 250° |
| 2026-04-26 22:25 | 28.10214 | -81.87430 | 1183 ft | 97 kts | 247° |
| 2026-04-26 22:25 | 28.09923 | -81.88072 | 1185 ft | 88 kts | 246° |
| 2026-04-26 22:26 | 28.09647 | -81.88708 | 1180 ft | 92 kts | 248° |
| 2026-04-26 22:26 | 28.09360 | -81.89375 | 1150 ft | 96 kts | 248° |
| 2026-04-26 22:26 | 28.09104 | -81.90055 | 1090 ft | 93 kts | 251° |
| 2026-04-26 22:26 | 28.08859 | -81.90712 | 1129 ft | 89 kts | 250° |
| 2026-04-26 22:27 | 28.08594 | -81.91382 | 1169 ft | 98 kts | 250° |
| 2026-04-26 22:27 | 28.08324 | -81.92116 | 1221 ft | 99 kts | 255° |
| 2026-04-26 22:27 | 28.08080 | -81.92802 | 1281 ft | 96 kts | 255° |
| 2026-04-26 22:27 | 28.07828 | -81.93506 | 1319 ft | 96 kts | 253° |
| 2026-04-26 22:28 | 28.07635 | -81.94228 | 1322 ft | 96 kts | 259° |
| 2026-04-26 22:28 | 28.07513 | -81.94943 | 1365 ft | 91 kts | 265° |
| 2026-04-26 22:28 | 28.07408 | -81.95607 | 1306 ft | 82 kts | 264° |
| 2026-04-26 22:28 | 28.07313 | -81.96236 | 1275 ft | 80 kts | 265° |
| 2026-04-26 22:29 | 28.07215 | -81.96930 | 1190 ft | 95 kts | 260° |
| 2026-04-26 22:29 | 28.07030 | -81.97670 | 1111 ft | 101 kts | 256° |
| 2026-04-26 22:29 | 28.06781 | -81.98396 | 1086 ft | 93 kts | 250° |
| 2026-04-26 22:29 | 28.06508 | -81.99009 | 1196 ft | 88 kts | 246° |
| 2026-04-26 22:30 | 28.06152 | -81.99641 | 1205 ft | 101 kts | 242° |
| 2026-04-26 22:30 | 28.05743 | -82.00319 | 1141 ft | 105 kts | 241° |
| 2026-04-26 22:30 | 28.05331 | -82.00990 | 1154 ft | 107 kts | 242° |
| 2026-04-26 22:30 | 28.04898 | -82.01685 | 1240 ft | 109 kts | 238° |
| 2026-04-26 22:31 | 28.04408 | -82.02341 | 1239 ft | 111 kts | 211° |
| 2026-04-26 22:31 | 28.03629 | -82.02249 | 1188 ft | 119 kts | 173° |
| 2026-04-26 22:31 | 28.02846 | -82.02080 | 1164 ft | 112 kts | 177° |
| 2026-04-26 22:31 | 28.02071 | -82.01970 | 1089 ft | 111 kts | 180° |
| 2026-04-26 22:32 | 28.01413 | -82.01714 | 984 ft | 106 kts | 135° |
| 2026-04-26 22:32 | 28.01235 | -82.00925 | 956 ft | 111 kts | 87° |
| 2026-04-26 22:32 | 28.01236 | -82.00047 | 932 ft | 104 kts | 90° |
| 2026-04-26 22:32 | 28.00814 | -81.99537 | 837 ft | 97 kts | 176° |
| 2026-04-26 22:33 | 28.00178 | -81.99500 | 731 ft | 87 kts | 187° |
| 2026-04-26 22:33 | 27.99239 | -81.99917 | 669 ft | 82 kts | 251° |
| 2026-04-26 22:33 | 27.99078 | -82.00564 | 577 ft | 91 kts | 264° |
| 2026-04-26 22:34 | 27.99010 | -82.01184 | 397 ft | 65 kts | 291° |
| 2026-04-26 22:34 | 27.99037 | -82.01665 | 268 ft | 64 kts | 270° |
| 2026-04-26 22:34 | 27.99028 | -82.02144 | 166 ft | 56 kts | 276° |
| 2026-04-26 22:34 | 27.99035 | -82.02527 | 138 ft | 39 kts | 270° |
| 2026-04-26 22:35 | 27.99037 | -82.02781 | 138 ft | 31 kts | 270° |
| 2026-04-26 22:35 | 27.99036 | -82.03044 | 134 ft | 30 kts | 270° |
| 2026-04-26 22:35 | 27.99034 | -82.03283 | 134 ft | 27 kts | 264° |
| 2026-04-26 22:35 | 27.98869 | -82.03348 | 136 ft | 32 kts | 167° |
| 2026-04-26 22:36 | 27.98815 | -82.03133 | 136 ft | 33 kts | 88° |
| 2026-04-26 22:36 | 27.98816 | -82.02903 | 133 ft | 28 kts | 89° |
| 2026-04-26 22:36 | 27.98816 | -82.02642 | 134 ft | 36 kts | 89° |
| 2026-04-26 22:36 | 27.98756 | -82.02339 | 134 ft | 48 kts | 130° |
| 2026-04-26 22:37 | 27.98700 | -82.02204 | 136 ft | 0 kts | 43° |